Hauptseite
METAR-TAF:

METAR-TAF

Flughäfen :

Flughafen Sunan

Pjöngjang, Nordkorea

Breite: 39-02N, Länge: 125-47E, Höhe: 36 m

METAR: fehlend

Zeit: 06:29 (21:59 UTC)

Prognose

Neuester Wetterbericht von vor 18 Stunden und 49 Minuten, um 03:10 UTC
Gültige Prognose vom 16 um 06 UTC bis 17 um 06 UTC
Wind 10 kt aus Süd/Südwest
Sichtweite: 6000 m
Aufgelockert bewölkt in der Höhe von 1300 ft
Durchbrochene Bewölkung in der Höhe von 1700 ft

TAF: ZKPY 160310Z 1606/1706 20005MPS 6000 SCT013 BKN017 TX30/1607Z TN23/1622Z

Wetterbeobachtungen und Prognosen von mehr als 4000 Flughäfen (METAR und TAF Bericht).

Die verfügbaren Stationen werden durch gelbe und rote Markierungen auf der Karte dargestellt.

Führen Sie die Maus auf sie, um den Namen der Station zu sehen.

Darauf klicken, um die Beobachtung von Wetterbeobachtungen und Prognosen zu sehen.

Um die Karte zu ändern : klicken Sie auf den grünen Tasten mit einem schwarzen Kreuz Zum Vergrößern, auf den grünen Button mit einem Gedankenstrich zu verkleinern, oder auf die grünen Pfeile für benachbarte Karten.


METAR-TAF: